sensor_id;sensor_type;location;lat;lon;timestamp;pressure;altitude;pressure_sealevel;temperature;humidity
15260;BME280;34462;51.368;12.364;2023-03-03T00:00:32;18862.81;;;-141.84;83.32
15260;BME280;34462;51.368;12.364;2023-03-03T00:03:06;18854.69;;;-141.84;83.54
15260;BME280;34462;51.368;12.364;2023-03-03T00:05:36;18848.59;;;-141.84;83.52
15260;BME280;34462;51.368;12.364;2023-03-03T00:08:05;18875.00;;;-141.84;83.90
15260;BME280;34462;51.368;12.364;2023-03-03T00:10:34;18933.94;;;-141.84;84.39
15260;BME280;34462;51.368;12.364;2023-03-03T00:13:02;18881.09;;;-141.84;84.58
15260;BME280;34462;51.368;12.364;2023-03-03T00:15:30;18879.06;;;-141.84;84.69
15260;BME280;34462;51.368;12.364;2023-03-03T00:17:59;18858.75;;;-141.84;84.16
15260;BME280;34462;51.368;12.364;2023-03-03T00:20:35;18875.00;;;-141.84;84.76
15260;BME280;34462;51.368;12.364;2023-03-03T00:23:19;18846.56;;;-141.84;84.83
15260;BME280;34462;51.368;12.364;2023-03-03T00:25:52;18877.03;;;-141.84;84.51
15260;BME280;34462;51.368;12.364;2023-03-03T00:28:28;18895.31;;;-141.84;83.50
15260;BME280;34462;51.368;12.364;2023-03-03T00:30:59;18870.94;;;-141.84;84.15
15260;BME280;34462;51.368;12.364;2023-03-03T00:33:31;18862.81;;;-141.84;84.20
15260;BME280;34462;51.368;12.364;2023-03-03T00:36:21;18860.78;;;-141.84;84.93
15260;BME280;34462;51.368;12.364;2023-03-03T00:39:13;18883.13;;;-141.84;85.06
15260;BME280;34462;51.368;12.364;2023-03-03T00:41:44;18850.63;;;-141.84;85.01
15260;BME280;34462;51.368;12.364;2023-03-03T00:44:38;18840.47;;;-141.84;84.57
15260;BME280;34462;51.368;12.364;2023-03-03T00:47:29;18872.97;;;-141.84;83.47
15260;BME280;34462;51.368;12.364;2023-03-03T00:50:30;18834.38;;;-141.84;82.11
15260;BME280;34462;51.368;12.364;2023-03-03T00:53:03;18830.31;;;-141.84;82.81
15260;BME280;34462;51.368;12.364;2023-03-03T00:55:34;18850.63;;;-141.84;83.77
15260;BME280;34462;51.368;12.364;2023-03-03T00:58:03;18854.69;;;-141.84;83.47
15260;BME280;34462;51.368;12.364;2023-03-03T01:00:31;18858.75;;;-141.84;83.52
15260;BME280;34462;51.368;12.364;2023-03-03T01:03:04;18879.06;;;-141.84;83.39
15260;BME280;34462;51.368;12.364;2023-03-03T01:05:33;18858.75;;;-141.84;83.44
15260;BME280;34462;51.368;12.364;2023-03-03T01:08:02;18866.88;;;-141.84;83.20
15260;BME280;34462;51.368;12.364;2023-03-03T01:10:37;18866.88;;;-141.84;83.18
15260;BME280;34462;51.368;12.364;2023-03-03T01:13:06;18844.53;;;-141.84;83.69
15260;BME280;34462;51.368;12.364;2023-03-03T01:15:35;18883.13;;;-141.84;83.11
15260;BME280;34462;51.368;12.364;2023-03-03T01:18:06;18858.75;;;-141.84;83.12
15260;BME280;34462;51.368;12.364;2023-03-03T01:20:34;18870.94;;;-141.84;82.28
15260;BME280;34462;51.368;12.364;2023-03-03T01:23:02;18854.69;;;-141.84;82.74
15260;BME280;34462;51.368;12.364;2023-03-03T01:25:32;18822.19;;;-141.84;83.33
15260;BME280;34462;51.368;12.364;2023-03-03T01:28:01;18840.47;;;-141.84;83.64
15260;BME280;34462;51.368;12.364;2023-03-03T01:30:30;18856.72;;;-141.84;83.87
15260;BME280;34462;51.368;12.364;2023-03-03T01:32:58;18826.25;;;-141.84;84.68
15260;BME280;34462;51.368;12.364;2023-03-03T01:35:26;18858.75;;;-141.84;84.46
15260;BME280;34462;51.368;12.364;2023-03-03T01:37:56;18822.19;;;-141.84;84.13
15260;BME280;34462;51.368;12.364;2023-03-03T01:40:28;18838.44;;;-141.84;83.36
15260;BME280;34462;51.368;12.364;2023-03-03T01:43:00;18842.50;;;-141.84;83.73
15260;BME280;34462;51.368;12.364;2023-03-03T01:45:31;18830.31;;;-141.84;84.24
15260;BME280;34462;51.368;12.364;2023-03-03T01:48:09;18858.75;;;-141.84;84.89
15260;BME280;34462;51.368;12.364;2023-03-03T01:50:47;18824.22;;;-141.84;84.99
15260;BME280;34462;51.368;12.364;2023-03-03T01:53:20;18830.31;;;-141.84;82.87
15260;BME280;34462;51.368;12.364;2023-03-03T01:55:52;18805.91;;;-141.84;82.89
15260;BME280;34462;51.368;12.364;2023-03-03T01:58:27;18820.16;;;-141.84;83.36
15260;BME280;34462;51.368;12.364;2023-03-03T02:01:01;18852.66;;;-141.84;84.14
15260;BME280;34462;51.368;12.364;2023-03-03T02:03:31;18828.28;;;-141.84;83.14
15260;BME280;34462;51.368;12.364;2023-03-03T02:06:06;18846.56;;;-141.84;82.35
15260;BME280;34462;51.368;12.364;2023-03-03T02:08:42;18838.44;;;-141.84;82.65
15260;BME280;34462;51.368;12.364;2023-03-03T02:11:13;18838.44;;;-141.84;83.06
15260;BME280;34462;51.368;12.364;2023-03-03T02:13:43;18830.31;;;-141.84;83.66
15260;BME280;34462;51.368;12.364;2023-03-03T02:16:11;18840.47;;;-141.84;83.71
15260;BME280;34462;51.368;12.364;2023-03-03T02:18:40;18842.50;;;-141.84;83.59
15260;BME280;34462;51.368;12.364;2023-03-03T02:21:11;18870.94;;;-141.84;83.13
15260;BME280;34462;51.368;12.364;2023-03-03T02:23:50;18828.28;;;-141.84;83.52
15260;BME280;34462;51.368;12.364;2023-03-03T02:26:25;18848.59;;;-141.84;83.08
15260;BME280;34462;51.368;12.364;2023-03-03T02:28:53;18850.63;;;-141.84;83.61
15260;BME280;34462;51.368;12.364;2023-03-03T02:31:25;18846.56;;;-141.84;83.62
15260;BME280;34462;51.368;12.364;2023-03-03T02:33:54;18856.72;;;-141.84;83.08
15260;BME280;34462;51.368;12.364;2023-03-03T02:36:26;18789.66;;;-141.84;83.65
15260;BME280;34462;51.368;12.364;2023-03-03T02:39:03;18840.47;;;-141.84;84.25
15260;BME280;34462;51.368;12.364;2023-03-03T02:41:40;18844.53;;;-141.84;84.09
15260;BME280;34462;51.368;12.364;2023-03-03T02:44:12;18842.50;;;-141.84;83.01
15260;BME280;34462;51.368;12.364;2023-03-03T02:46:43;18834.38;;;-141.84;82.67
15260;BME280;34462;51.368;12.364;2023-03-03T02:49:15;18830.31;;;-141.84;82.97
15260;BME280;34462;51.368;12.364;2023-03-03T02:51:44;18852.66;;;-141.84;82.99
15260;BME280;34462;51.368;12.364;2023-03-03T02:54:15;18830.31;;;-141.84;83.43
15260;BME280;34462;51.368;12.364;2023-03-03T02:56:45;18812.00;;;-141.84;83.54
15260;BME280;34462;51.368;12.364;2023-03-03T02:59:14;18805.91;;;-141.84;83.63
15260;BME280;34462;51.368;12.364;2023-03-03T03:01:43;18832.34;;;-141.84;83.72
15260;BME280;34462;51.368;12.364;2023-03-03T03:04:14;18826.25;;;-141.84;84.42
15260;BME280;34462;51.368;12.364;2023-03-03T03:06:43;18832.34;;;-141.84;84.60
15260;BME280;34462;51.368;12.364;2023-03-03T03:09:14;18787.63;;;-141.84;85.26
15260;BME280;34462;51.368;12.364;2023-03-03T03:11:43;18809.97;;;-141.84;85.50
15260;BME280;34462;51.368;12.364;2023-03-03T03:14:13;18822.19;;;-141.84;85.66
15260;BME280;34462;51.368;12.364;2023-03-03T03:16:41;18832.34;;;-141.84;84.42
15260;BME280;34462;51.368;12.364;2023-03-03T03:19:10;18814.03;;;-141.84;84.70
15260;BME280;34462;51.368;12.364;2023-03-03T03:21:38;18834.38;;;-141.84;83.11
15260;BME280;34462;51.368;12.364;2023-03-03T03:24:07;18822.19;;;-141.84;82.24
15260;BME280;34462;51.368;12.364;2023-03-03T03:26:35;18824.22;;;-141.84;82.96
15260;BME280;34462;51.368;12.364;2023-03-03T03:29:03;18818.09;;;-141.84;83.45
15260;BME280;34462;51.368;12.364;2023-03-03T03:31:34;18809.97;;;-141.84;83.54
15260;BME280;34462;51.368;12.364;2023-03-03T03:34:02;18812.00;;;-141.84;83.60
15260;BME280;34462;51.368;12.364;2023-03-03T03:36:30;18844.53;;;-141.84;83.78
15260;BME280;34462;51.368;12.364;2023-03-03T03:38:58;18844.53;;;-141.84;83.90
15260;BME280;34462;51.368;12.364;2023-03-03T03:41:28;18834.38;;;-141.84;83.81
15260;BME280;34462;51.368;12.364;2023-03-03T03:43:56;18840.47;;;-141.84;83.41
15260;BME280;34462;51.368;12.364;2023-03-03T03:46:24;18818.09;;;-141.84;83.41
15260;BME280;34462;51.368;12.364;2023-03-03T03:48:54;18840.47;;;-141.84;83.18
15260;BME280;34462;51.368;12.364;2023-03-03T03:51:22;18844.53;;;-141.84;83.75
15260;BME280;34462;51.368;12.364;2023-03-03T03:53:50;18789.66;;;-141.84;83.38
15260;BME280;34462;51.368;12.364;2023-03-03T03:56:18;18877.03;;;-141.84;83.99
15260;BME280;34462;51.368;12.364;2023-03-03T03:58:46;18814.03;;;-141.84;84.64
15260;BME280;34462;51.368;12.364;2023-03-03T04:01:15;18832.34;;;-141.84;84.83
15260;BME280;34462;51.368;12.364;2023-03-03T04:03:43;18814.03;;;-141.84;84.83
15260;BME280;34462;51.368;12.364;2023-03-03T04:06:12;18820.16;;;-141.84;84.14
15260;BME280;34462;51.368;12.364;2023-03-03T04:08:40;18838.44;;;-141.84;84.26
15260;BME280;34462;51.368;12.364;2023-03-03T04:11:09;18789.66;;;-141.84;84.61
15260;BME280;34462;51.368;12.364;2023-03-03T04:13:37;18799.81;;;-141.84;84.78
15260;BME280;34462;51.368;12.364;2023-03-03T04:16:05;18830.31;;;-141.84;84.39
15260;BME280;34462;51.368;12.364;2023-03-03T04:18:34;18830.31;;;-141.84;84.21
15260;BME280;34462;51.368;12.364;2023-03-03T04:21:02;18838.44;;;-141.84;84.21
15260;BME280;34462;51.368;12.364;2023-03-03T04:23:31;18816.06;;;-141.84;84.07
15260;BME280;34462;51.368;12.364;2023-03-03T04:26:00;18830.31;;;-141.84;83.11
15260;BME280;34462;51.368;12.364;2023-03-03T04:28:28;18824.22;;;-141.84;82.97
15260;BME280;34462;51.368;12.364;2023-03-03T04:30:56;18842.50;;;-141.84;83.35
15260;BME280;34462;51.368;12.364;2023-03-03T04:33:24;18824.22;;;-141.84;83.64
15260;BME280;34462;51.368;12.364;2023-03-03T04:35:53;18828.28;;;-141.84;83.34
15260;BME280;34462;51.368;12.364;2023-03-03T04:38:21;18836.41;;;-141.84;82.72
15260;BME280;34462;51.368;12.364;2023-03-03T04:40:50;18828.28;;;-141.84;83.17
15260;BME280;34462;51.368;12.364;2023-03-03T04:43:19;18820.16;;;-141.84;83.66
15260;BME280;34462;51.368;12.364;2023-03-03T04:45:47;18793.72;;;-141.84;83.02
15260;BME280;34462;51.368;12.364;2023-03-03T04:48:15;18838.44;;;-141.84;82.86
15260;BME280;34462;51.368;12.364;2023-03-03T04:50:44;18793.72;;;-141.84;82.51
15260;BME280;34462;51.368;12.364;2023-03-03T04:53:12;18842.50;;;-141.84;83.27
15260;BME280;34462;51.368;12.364;2023-03-03T04:55:40;18801.84;;;-141.84;83.39
15260;BME280;34462;51.368;12.364;2023-03-03T04:58:10;18830.31;;;-141.84;83.22
15260;BME280;34462;51.368;12.364;2023-03-03T05:00:38;18838.44;;;-141.84;83.82
15260;BME280;34462;51.368;12.364;2023-03-03T05:03:07;18822.19;;;-141.84;84.38
15260;BME280;34462;51.368;12.364;2023-03-03T05:05:37;18785.59;;;-141.84;84.03
15260;BME280;34462;51.368;12.364;2023-03-03T05:08:05;18809.97;;;-141.84;84.13
15260;BME280;34462;51.368;12.364;2023-03-03T05:10:34;18844.53;;;-141.84;83.82
15260;BME280;34462;51.368;12.364;2023-03-03T05:13:03;18818.09;;;-141.84;83.11
15260;BME280;34462;51.368;12.364;2023-03-03T05:15:33;18864.84;;;-141.84;81.31
15260;BME280;34462;51.368;12.364;2023-03-03T05:18:01;18814.03;;;-141.84;82.02
15260;BME280;34462;51.368;12.364;2023-03-03T05:20:29;18848.59;;;-141.84;82.42
15260;BME280;34462;51.368;12.364;2023-03-03T05:22:57;18814.03;;;-141.84;82.97
15260;BME280;34462;51.368;12.364;2023-03-03T05:25:27;18830.31;;;-141.84;83.07
15260;BME280;34462;51.368;12.364;2023-03-03T05:27:55;18809.97;;;-141.84;83.11
15260;BME280;34462;51.368;12.364;2023-03-03T05:30:23;18846.56;;;-141.84;81.91
15260;BME280;34462;51.368;12.364;2023-03-03T05:32:53;18858.75;;;-141.84;81.43
15260;BME280;34462;51.368;12.364;2023-03-03T05:35:21;18818.09;;;-141.84;81.62
15260;BME280;34462;51.368;12.364;2023-03-03T05:37:49;18846.56;;;-141.84;82.12
15260;BME280;34462;51.368;12.364;2023-03-03T05:40:18;18832.34;;;-141.84;81.79
15260;BME280;34462;51.368;12.364;2023-03-03T05:42:46;18842.50;;;-141.84;81.89
15260;BME280;34462;51.368;12.364;2023-03-03T05:45:15;18848.59;;;-141.84;82.72
15260;BME280;34462;51.368;12.364;2023-03-03T05:47:46;18832.34;;;-141.84;82.58
15260;BME280;34462;51.368;12.364;2023-03-03T05:50:16;18793.72;;;-141.84;83.09
15260;BME280;34462;51.368;12.364;2023-03-03T05:52:47;18816.06;;;-141.84;83.11
15260;BME280;34462;51.368;12.364;2023-03-03T05:55:16;18824.22;;;-141.84;83.16
15260;BME280;34462;51.368;12.364;2023-03-03T05:57:44;18834.38;;;-141.84;83.51
15260;BME280;34462;51.368;12.364;2023-03-03T06:00:15;18842.50;;;-141.84;82.77
15260;BME280;34462;51.368;12.364;2023-03-03T06:02:43;18838.44;;;-141.84;82.73
15260;BME280;34462;51.368;12.364;2023-03-03T06:05:11;18828.28;;;-141.84;82.50
15260;BME280;34462;51.368;12.364;2023-03-03T06:07:41;18846.56;;;-141.84;83.05
15260;BME280;34462;51.368;12.364;2023-03-03T06:10:10;18828.28;;;-141.84;82.63
15260;BME280;34462;51.368;12.364;2023-03-03T06:12:38;18777.47;;;-141.84;82.16
15260;BME280;34462;51.368;12.364;2023-03-03T06:15:09;18842.50;;;-141.84;81.46
15260;BME280;34462;51.368;12.364;2023-03-03T06:17:38;18824.22;;;-141.84;80.08
15260;BME280;34462;51.368;12.364;2023-03-03T06:20:08;18824.22;;;-141.84;80.46
15260;BME280;34462;51.368;12.364;2023-03-03T06:22:36;18862.81;;;-141.84;80.44
15260;BME280;34462;51.368;12.364;2023-03-03T06:25:07;18787.63;;;-141.84;81.19
15260;BME280;34462;51.368;12.364;2023-03-03T06:27:35;18818.09;;;-141.84;81.73
15260;BME280;34462;51.368;12.364;2023-03-03T06:30:05;18828.28;;;-141.84;82.13
15260;BME280;34462;51.368;12.364;2023-03-03T06:32:34;18807.94;;;-141.84;82.13
15260;BME280;34462;51.368;12.364;2023-03-03T06:35:02;18824.22;;;-141.84;82.18
15260;BME280;34462;51.368;12.364;2023-03-03T06:37:30;18818.09;;;-141.84;82.48
15260;BME280;34462;51.368;12.364;2023-03-03T06:39:58;18805.91;;;-141.84;82.21
15260;BME280;34462;51.368;12.364;2023-03-03T06:42:28;18826.25;;;-141.84;82.23
15260;BME280;34462;51.368;12.364;2023-03-03T06:44:56;18824.22;;;-141.84;82.14
15260;BME280;34462;51.368;12.364;2023-03-03T06:47:24;18830.31;;;-141.84;81.17
15260;BME280;34462;51.368;12.364;2023-03-03T06:49:53;18814.03;;;-141.84;81.34
15260;BME280;34462;51.368;12.364;2023-03-03T06:52:25;18836.41;;;-141.84;81.27
15260;BME280;34462;51.368;12.364;2023-03-03T06:54:57;18818.09;;;-141.84;80.91
15260;BME280;34462;51.368;12.364;2023-03-03T06:57:29;18856.72;;;-141.84;79.86
15260;BME280;34462;51.368;12.364;2023-03-03T07:00:14;18785.59;;;-141.84;80.39
15260;BME280;34462;51.368;12.364;2023-03-03T07:02:43;18850.63;;;-141.84;78.10
15260;BME280;34462;51.368;12.364;2023-03-03T07:05:15;18866.88;;;-141.84;78.15
15260;BME280;34462;51.368;12.364;2023-03-03T07:07:44;18814.03;;;-141.84;78.94
15260;BME280;34462;51.368;12.364;2023-03-03T07:10:22;18822.19;;;-141.84;77.74
15260;BME280;34462;51.368;12.364;2023-03-03T07:12:52;18850.63;;;-141.84;78.31
15260;BME280;34462;51.368;12.364;2023-03-03T07:15:24;18832.34;;;-141.84;77.29
15260;BME280;34462;51.368;12.364;2023-03-03T07:17:56;18856.72;;;-141.84;77.82
15260;BME280;34462;51.368;12.364;2023-03-03T07:20:35;18850.63;;;-141.84;78.03
15260;BME280;34462;51.368;12.364;2023-03-03T07:23:18;18887.19;;;-141.84;77.43
15260;BME280;34462;51.368;12.364;2023-03-03T07:25:48;18840.47;;;-141.84;77.58
15260;BME280;34462;51.368;12.364;2023-03-03T07:28:23;18887.19;;;-141.84;77.96
15260;BME280;34462;51.368;12.364;2023-03-03T07:30:52;18838.44;;;-141.84;77.71
15260;BME280;34462;51.368;12.364;2023-03-03T07:33:26;18879.06;;;-141.84;75.61
15260;BME280;34462;51.368;12.364;2023-03-03T07:35:57;18868.91;;;-141.84;75.23
15260;BME280;34462;51.368;12.364;2023-03-03T07:38:34;18883.13;;;-141.84;75.09
15260;BME280;34462;51.368;12.364;2023-03-03T07:41:11;18885.16;;;-141.84;74.52
15260;BME280;34462;51.368;12.364;2023-03-03T07:43:49;18879.06;;;-141.84;74.26
15260;BME280;34462;51.368;12.364;2023-03-03T07:46:29;18870.94;;;-141.84;73.34
15260;BME280;34462;51.368;12.364;2023-03-03T07:48:59;18877.03;;;-141.84;73.93
15260;BME280;34462;51.368;12.364;2023-03-03T07:51:35;18891.25;;;-141.84;74.75
15260;BME280;34462;51.368;12.364;2023-03-03T07:54:28;18895.31;;;-141.84;74.51
15260;BME280;34462;51.368;12.364;2023-03-03T07:57:02;18901.41;;;-141.84;74.30
15260;BME280;34462;51.368;12.364;2023-03-03T07:59:37;18911.56;;;-141.84;73.77
15260;BME280;34462;51.368;12.364;2023-03-03T08:02:35;18887.19;;;-141.84;74.38
15260;BME280;34462;51.368;12.364;2023-03-03T08:05:34;18923.78;;;-141.84;74.93
15260;BME280;34462;51.368;12.364;2023-03-03T08:08:21;18935.97;;;-141.84;74.13
15260;BME280;34462;51.368;12.364;2023-03-03T08:10:57;18909.53;;;-141.84;72.71
15260;BME280;34462;51.368;12.364;2023-03-03T08:13:34;18909.53;;;-141.84;72.41
15260;BME280;34462;51.368;12.364;2023-03-03T08:16:29;18923.78;;;-141.84;72.74
15260;BME280;34462;51.368;12.364;2023-03-03T08:19:05;18921.75;;;-141.84;72.11
15260;BME280;34462;51.368;12.364;2023-03-03T08:21:34;18944.09;;;-141.84;70.36
15260;BME280;34462;51.368;12.364;2023-03-03T08:24:04;18935.97;;;-141.84;69.07
15260;BME280;34462;51.368;12.364;2023-03-03T08:26:32;18946.13;;;-141.84;69.78
15260;BME280;34462;51.368;12.364;2023-03-03T08:29:00;18942.06;;;-141.84;69.37
15260;BME280;34462;51.368;12.364;2023-03-03T08:31:30;18954.25;;;-141.84;68.78
15260;BME280;34462;51.368;12.364;2023-03-03T08:34:07;18935.97;;;-141.84;69.52
15260;BME280;34462;51.368;12.364;2023-03-03T08:36:36;18917.66;;;-141.84;70.00
15260;BME280;34462;51.368;12.364;2023-03-03T08:39:04;18950.19;;;-141.84;70.50
15260;BME280;34462;51.368;12.364;2023-03-03T08:41:33;18942.06;;;-141.84;70.20
15260;BME280;34462;51.368;12.364;2023-03-03T08:44:01;18946.13;;;-141.84;70.52
15260;BME280;34462;51.368;12.364;2023-03-03T08:46:31;18942.06;;;-141.84;70.18
15260;BME280;34462;51.368;12.364;2023-03-03T08:48:59;18956.28;;;-141.84;70.33
15260;BME280;34462;51.368;12.364;2023-03-03T08:51:27;18952.22;;;-141.84;70.91
15260;BME280;34462;51.368;12.364;2023-03-03T08:53:55;18944.09;;;-141.84;70.72
15260;BME280;34462;51.368;12.364;2023-03-03T08:56:23;18964.41;;;-141.84;71.37
15260;BME280;34462;51.368;12.364;2023-03-03T08:58:51;18980.66;;;-141.84;70.92
15260;BME280;34462;51.368;12.364;2023-03-03T09:01:30;18988.78;;;-141.84;68.96
15260;BME280;34462;51.368;12.364;2023-03-03T09:03:59;18982.69;;;-141.84;68.53
15260;BME280;34462;51.368;12.364;2023-03-03T09:06:27;18988.78;;;-141.84;68.41
15260;BME280;34462;51.368;12.364;2023-03-03T09:08:55;18984.72;;;-141.84;69.48
15260;BME280;34462;51.368;12.364;2023-03-03T09:11:27;18938.00;;;-141.84;69.09
15260;BME280;34462;51.368;12.364;2023-03-03T09:14:06;18950.19;;;-141.84;70.04
15260;BME280;34462;51.368;12.364;2023-03-03T09:16:42;18972.53;;;-141.84;69.50
15260;BME280;34462;51.368;12.364;2023-03-03T09:19:26;18978.63;;;-141.84;69.49
15260;BME280;34462;51.368;12.364;2023-03-03T09:22:00;18956.28;;;-141.84;69.53
15260;BME280;34462;51.368;12.364;2023-03-03T09:24:30;18946.13;;;-141.84;70.39
15260;BME280;34462;51.368;12.364;2023-03-03T09:27:18;18972.53;;;-141.84;70.69
15260;BME280;34462;51.368;12.364;2023-03-03T09:29:49;18968.47;;;-141.84;70.86
15260;BME280;34462;51.368;12.364;2023-03-03T09:32:32;19025.38;;;-141.84;68.98
15260;BME280;34462;51.368;12.364;2023-03-03T09:35:35;19005.03;;;-141.84;68.29
15260;BME280;34462;51.368;12.364;2023-03-03T09:38:23;19003.00;;;-141.84;69.22
15260;BME280;34462;51.368;12.364;2023-03-03T09:44:33;18964.41;;;-141.84;70.13
15260;BME280;34462;51.368;12.364;2023-03-03T09:47:24;19011.13;;;-141.84;68.32
15260;BME280;34462;51.368;12.364;2023-03-03T09:50:06;19000.97;;;-141.84;68.60
15260;BME280;34462;51.368;12.364;2023-03-03T09:52:49;19007.06;;;-141.84;68.52
15260;BME280;34462;51.368;12.364;2023-03-03T09:55:35;19003.00;;;-141.84;69.02
15260;BME280;34462;51.368;12.364;2023-03-03T09:58:26;19003.00;;;-141.84;68.25
15260;BME280;34462;51.368;12.364;2023-03-03T10:01:27;19013.16;;;-141.84;69.37
15260;BME280;34462;51.368;12.364;2023-03-03T10:04:19;18998.94;;;-141.84;67.58
15260;BME280;34462;51.368;12.364;2023-03-03T10:07:05;19003.00;;;-141.84;68.49
15260;BME280;34462;51.368;12.364;2023-03-03T10:09:59;19041.63;;;-141.84;67.99
15260;BME280;34462;51.368;12.364;2023-03-03T10:12:40;19035.53;;;-141.84;69.00
15260;BME280;34462;51.368;12.364;2023-03-03T10:15:31;18998.94;;;-141.84;69.73
15260;BME280;34462;51.368;12.364;2023-03-03T10:18:17;19009.09;;;-141.84;69.50
15260;BME280;34462;51.368;12.364;2023-03-03T10:21:06;19021.31;;;-141.84;69.71
15260;BME280;34462;51.368;12.364;2023-03-03T10:23:51;19033.50;;;-141.84;69.56
15260;BME280;34462;51.368;12.364;2023-03-03T10:26:47;19027.41;;;-141.84;69.07
15260;BME280;34462;51.368;12.364;2023-03-03T10:29:43;19019.28;;;-141.84;69.43
15260;BME280;34462;51.368;12.364;2023-03-03T10:32:46;19013.16;;;-141.84;69.33
15260;BME280;34462;51.368;12.364;2023-03-03T10:35:50;18998.94;;;-141.84;69.95
15260;BME280;34462;51.368;12.364;2023-03-03T10:38:51;19045.69;;;-141.84;69.87
15260;BME280;34462;51.368;12.364;2023-03-03T10:41:42;19019.28;;;-141.84;70.04
15260;BME280;34462;51.368;12.364;2023-03-03T10:44:55;19025.38;;;-141.84;70.34
15260;BME280;34462;51.368;12.364;2023-03-03T10:47:47;19003.00;;;-141.84;69.65
15260;BME280;34462;51.368;12.364;2023-03-03T10:50:26;19039.59;;;-141.84;68.93
15260;BME280;34462;51.368;12.364;2023-03-03T10:53:16;19090.38;;;-141.84;67.48
15260;BME280;34462;51.368;12.364;2023-03-03T10:56:14;19063.97;;;-141.84;67.40
15260;BME280;34462;51.368;12.364;2023-03-03T10:58:55;19068.03;;;-141.84;67.98
15260;BME280;34462;51.368;12.364;2023-03-03T11:01:42;19043.66;;;-141.84;68.20
15260;BME280;34462;51.368;12.364;2023-03-03T11:04:44;19059.91;;;-141.84;67.69
15260;BME280;34462;51.368;12.364;2023-03-03T11:07:26;19041.63;;;-141.84;68.52
15260;BME280;34462;51.368;12.364;2023-03-03T11:10:14;19045.69;;;-141.84;68.79
15260;BME280;34462;51.368;12.364;2023-03-03T11:12:56;19029.44;;;-141.84;69.25
15260;BME280;34462;51.368;12.364;2023-03-03T11:15:42;19023.34;;;-141.84;69.42
15260;BME280;34462;51.368;12.364;2023-03-03T11:18:32;19041.63;;;-141.84;69.12
15260;BME280;34462;51.368;12.364;2023-03-03T11:21:12;19037.56;;;-141.84;69.90
15260;BME280;34462;51.368;12.364;2023-03-03T11:24:00;19072.09;;;-141.84;70.75
15260;BME280;34462;51.368;12.364;2023-03-03T11:26:52;19037.56;;;-141.84;69.92
15260;BME280;34462;51.368;12.364;2023-03-03T11:29:45;19078.19;;;-141.84;68.06
15260;BME280;34462;51.368;12.364;2023-03-03T11:32:25;19063.97;;;-141.84;67.74
15260;BME280;34462;51.368;12.364;2023-03-03T11:35:17;19078.19;;;-141.84;68.52
15260;BME280;34462;51.368;12.364;2023-03-03T11:38:03;19074.13;;;-141.84;67.74
15260;BME280;34462;51.368;12.364;2023-03-03T11:40:46;19080.22;;;-141.84;67.88
15260;BME280;34462;51.368;12.364;2023-03-03T11:43:21;19068.03;;;-141.84;67.68
15260;BME280;34462;51.368;12.364;2023-03-03T11:46:08;19066.00;;;-141.84;68.68
15260;BME280;34462;51.368;12.364;2023-03-03T11:48:49;19066.00;;;-141.84;68.38
15260;BME280;34462;51.368;12.364;2023-03-03T11:51:33;19055.84;;;-141.84;67.26
15260;BME280;34462;51.368;12.364;2023-03-03T11:54:14;19068.03;;;-141.84;68.47
15260;BME280;34462;51.368;12.364;2023-03-03T11:56:47;19051.78;;;-141.84;69.00
15260;BME280;34462;51.368;12.364;2023-03-03T11:59:47;19074.13;;;-141.84;68.06
15260;BME280;34462;51.368;12.364;2023-03-03T12:03:10;19063.97;;;-141.84;68.80
15260;BME280;34462;51.368;12.364;2023-03-03T12:05:55;19090.38;;;-141.84;69.04
15260;BME280;34462;51.368;12.364;2023-03-03T12:08:40;19037.56;;;-141.84;68.56
15260;BME280;34462;51.368;12.364;2023-03-03T12:11:19;19029.44;;;-141.84;69.09
15260;BME280;34462;51.368;12.364;2023-03-03T12:13:57;19066.00;;;-141.84;68.87
15260;BME280;34462;51.368;12.364;2023-03-03T12:16:41;19094.44;;;-141.84;67.28
15260;BME280;34462;51.368;12.364;2023-03-03T12:19:33;19059.91;;;-141.84;66.76
15260;BME280;34462;51.368;12.364;2023-03-03T12:22:26;19080.22;;;-141.84;66.68
15260;BME280;34462;51.368;12.364;2023-03-03T12:25:31;19129.00;;;-141.84;66.51
15260;BME280;34462;51.368;12.364;2023-03-03T12:28:09;19088.34;;;-141.84;65.51
15260;BME280;34462;51.368;12.364;2023-03-03T12:31:05;19098.50;;;-141.84;65.99
15260;BME280;34462;51.368;12.364;2023-03-03T12:33:51;19141.19;;;-141.84;65.57
15260;BME280;34462;51.368;12.364;2023-03-03T12:36:35;19114.78;;;-141.84;65.69
15260;BME280;34462;51.368;12.364;2023-03-03T12:39:13;19090.38;;;-141.84;65.63
15260;BME280;34462;51.368;12.364;2023-03-03T12:42:09;19102.56;;;-141.84;66.70
15260;BME280;34462;51.368;12.364;2023-03-03T12:44:46;19090.38;;;-141.84;67.27
15260;BME280;34462;51.368;12.364;2023-03-03T12:47:24;19080.22;;;-141.84;66.92
15260;BME280;34462;51.368;12.364;2023-03-03T12:50:21;19122.91;;;-141.84;67.37
15260;BME280;34462;51.368;12.364;2023-03-03T12:53:06;19053.81;;;-141.84;68.03
15260;BME280;34462;51.368;12.364;2023-03-03T12:55:48;19094.44;;;-141.84;67.82
15260;BME280;34462;51.368;12.364;2023-03-03T12:58:35;19090.38;;;-141.84;67.97
15260;BME280;34462;51.368;12.364;2023-03-03T13:01:21;19094.44;;;-141.84;67.89
15260;BME280;34462;51.368;12.364;2023-03-03T13:04:03;19080.22;;;-141.84;68.28
15260;BME280;34462;51.368;12.364;2023-03-03T13:06:42;19076.16;;;-141.84;67.71
15260;BME280;34462;51.368;12.364;2023-03-03T13:09:29;19047.72;;;-141.84;68.68
15260;BME280;34462;51.368;12.364;2023-03-03T13:12:23;19051.78;;;-141.84;68.97
15260;BME280;34462;51.368;12.364;2023-03-03T13:15:01;19055.84;;;-141.84;69.24
15260;BME280;34462;51.368;12.364;2023-03-03T13:17:37;19041.63;;;-141.84;68.68